createdAt,value
2022-11-29T00:01:40.231Z,3.29
2022-11-29T00:04:08.662Z,3.30
2022-11-29T00:06:36.470Z,3.32
2022-11-29T00:09:07.847Z,3.32
2022-11-29T00:11:55.909Z,3.31
2022-11-29T00:14:25.356Z,3.29
2022-11-29T00:16:56.779Z,3.29
2022-11-29T00:19:25.084Z,3.28
2022-11-29T00:21:53.049Z,3.27
2022-11-29T00:24:21.245Z,3.27
2022-11-29T00:26:49.371Z,3.27
2022-11-29T00:29:17.218Z,3.26
2022-11-29T00:31:45.651Z,3.24
2022-11-29T00:34:13.428Z,3.22
2022-11-29T00:36:41.310Z,3.23
2022-11-29T00:39:11.889Z,3.22
2022-11-29T00:41:40.386Z,3.22
2022-11-29T00:44:09.210Z,3.22
2022-11-29T00:46:37.737Z,3.23
2022-11-29T00:49:05.501Z,3.23
2022-11-29T00:51:33.504Z,3.22
2022-11-29T00:54:01.388Z,3.21
2022-11-29T00:56:30.266Z,3.22
2022-11-29T00:58:58.348Z,3.21
2022-11-29T01:02:00.868Z,3.18
2022-11-29T01:04:29.518Z,3.15
2022-11-29T01:06:57.618Z,3.15
2022-11-29T01:09:27.545Z,3.14
2022-11-29T01:11:55.472Z,3.14
2022-11-29T01:14:23.360Z,3.14
2022-11-29T01:16:51.465Z,3.13
2022-11-29T01:19:20.633Z,3.13
2022-11-29T01:21:48.387Z,3.14
2022-11-29T01:24:16.311Z,3.15
2022-11-29T01:26:44.251Z,3.18
2022-11-29T01:29:13.440Z,3.19
2022-11-29T01:31:41.237Z,3.19
2022-11-29T01:34:10.586Z,3.16
2022-11-29T01:36:38.543Z,3.15
2022-11-29T01:39:06.894Z,3.12
2022-11-29T01:41:36.747Z,3.11
2022-11-29T01:44:04.523Z,3.09
2022-11-29T01:46:38.053Z,3.07
2022-11-29T01:49:13.218Z,3.06
2022-11-29T01:51:45.821Z,3.05
2022-11-29T01:54:14.927Z,3.04
2022-11-29T01:56:46.346Z,3.05
2022-11-29T01:59:19.234Z,3.05
2022-11-29T02:01:47.242Z,3.06
2022-11-29T02:04:17.103Z,3.06
2022-11-29T02:06:46.668Z,3.06
2022-11-29T02:09:23.290Z,3.06
2022-11-29T02:12:03.254Z,3.07
2022-11-29T02:14:53.367Z,3.04
2022-11-29T02:17:30.338Z,3.06
2022-11-29T02:20:35.833Z,3.06
2022-11-29T02:23:12.638Z,3.09
2022-11-29T02:26:06.687Z,3.10
2022-11-29T02:29:02.246Z,3.13
2022-11-29T02:31:48.956Z,3.17
2022-11-29T02:34:34.803Z,3.19
2022-11-29T02:37:27.136Z,3.19
2022-11-29T02:40:19.692Z,3.17
2022-11-29T02:43:03.351Z,3.14
2022-11-29T02:45:49.745Z,3.11
2022-11-29T02:48:17.528Z,3.10
2022-11-29T02:50:52.376Z,3.09
2022-11-29T02:53:33.060Z,3.07
2022-11-29T02:56:42.607Z,3.07
2022-11-29T02:59:42.905Z,3.07
2022-11-29T03:02:23.245Z,3.07
2022-11-29T03:05:17.400Z,3.07
2022-11-29T03:07:51.297Z,3.08
2022-11-29T03:10:37.999Z,3.10
2022-11-29T03:13:13.215Z,3.10
2022-11-29T03:16:03.311Z,3.10
2022-11-29T03:18:51.265Z,3.09
2022-11-29T03:21:36.510Z,3.09
2022-11-29T03:24:15.951Z,3.06
2022-11-29T03:26:51.894Z,3.03
2022-11-29T03:29:46.714Z,3.03
2022-11-29T03:32:35.432Z,3.04
2022-11-29T03:35:23.331Z,3.06
2022-11-29T03:38:16.289Z,3.10
2022-11-29T03:41:13.185Z,3.15
2022-11-29T03:43:55.069Z,3.18
2022-11-29T03:46:49.823Z,3.18
2022-11-29T03:49:32.629Z,3.18
2022-11-29T03:52:15.825Z,3.17
2022-11-29T03:55:19.321Z,3.14
2022-11-29T03:58:02.740Z,3.10
2022-11-29T04:00:52.362Z,3.09
2022-11-29T04:03:52.948Z,3.09
2022-11-29T04:06:29.542Z,3.11
2022-11-29T04:09:20.951Z,3.13
2022-11-29T04:12:25.693Z,3.12
2022-11-29T04:15:28.976Z,3.12
2022-11-29T04:18:24.787Z,3.12
2022-11-29T04:21:11.130Z,3.13
2022-11-29T04:24:30.529Z,3.13
2022-11-29T04:27:16.892Z,3.15
2022-11-29T04:29:50.689Z,3.15
2022-11-29T04:32:40.591Z,3.14
2022-11-29T04:35:35.482Z,3.16
2022-11-29T04:38:20.213Z,3.17
2022-11-29T04:40:57.354Z,3.19
2022-11-29T04:43:43.676Z,3.22
2022-11-29T04:46:14.718Z,3.24
2022-11-29T04:49:06.094Z,3.27
2022-11-29T04:52:02.722Z,3.28
2022-11-29T04:54:48.030Z,3.29
2022-11-29T04:57:35.396Z,3.29
2022-11-29T05:00:10.147Z,3.27
2022-11-29T05:02:40.988Z,3.27
2022-11-29T05:05:24.603Z,3.26
2022-11-29T05:08:26.582Z,3.27
2022-11-29T05:11:14.662Z,3.29
2022-11-29T05:14:01.392Z,3.31
2022-11-29T05:16:32.880Z,3.35
2022-11-29T05:19:34.740Z,3.37
2022-11-29T05:22:20.210Z,3.37
2022-11-29T05:25:21.289Z,3.35
2022-11-29T05:28:05.685Z,3.34
2022-11-29T05:31:15.016Z,3.33
2022-11-29T05:33:49.885Z,3.31
2022-11-29T05:36:40.070Z,3.29
2022-11-29T05:39:28.240Z,3.32
2022-11-29T05:42:13.310Z,3.33
2022-11-29T05:45:07.861Z,3.34
2022-11-29T05:47:46.776Z,3.34
2022-11-29T05:50:33.946Z,3.34
2022-11-29T05:53:21.792Z,3.33
2022-11-29T05:56:08.970Z,3.34
2022-11-29T05:58:40.019Z,3.36
2022-11-29T06:01:29.535Z,3.36
2022-11-29T06:04:22.918Z,3.37
2022-11-29T06:07:12.212Z,3.38
2022-11-29T06:10:01.450Z,3.39
2022-11-29T06:12:36.026Z,3.39
2022-11-29T06:15:47.440Z,3.39
2022-11-29T06:18:42.476Z,3.41
2022-11-29T06:21:39.749Z,3.40
2022-11-29T06:24:25.885Z,3.40
2022-11-29T06:27:00.599Z,3.39
2022-11-29T06:29:47.202Z,3.36
2022-11-29T06:32:42.009Z,3.35
2022-11-29T06:35:33.453Z,3.34
2022-11-29T06:38:20.895Z,3.35
2022-11-29T06:40:50.111Z,3.33
2022-11-29T06:43:18.744Z,3.34
2022-11-29T06:45:53.454Z,3.36
2022-11-29T06:48:27.299Z,3.38
2022-11-29T06:51:07.794Z,3.38
2022-11-29T06:53:41.716Z,3.39
2022-11-29T06:56:29.416Z,3.37
2022-11-29T06:59:23.525Z,3.35
2022-11-29T07:02:01.572Z,3.35
2022-11-29T07:05:01.690Z,3.38
2022-11-29T07:07:29.786Z,3.42
2022-11-29T07:10:01.030Z,3.48
2022-11-29T07:12:29.134Z,3.52
2022-11-29T07:14:57.216Z,3.55
2022-11-29T07:17:35.297Z,3.57
2022-11-29T07:20:34.753Z,3.61
2022-11-29T07:23:14.468Z,3.64
2022-11-29T07:26:04.259Z,3.67
2022-11-29T07:28:59.855Z,3.70
2022-11-29T07:32:05.786Z,3.70
2022-11-29T07:34:52.049Z,3.75
2022-11-29T07:37:41.010Z,3.81
2022-11-29T07:40:34.444Z,3.87
2022-11-29T07:43:33.006Z,3.92
2022-11-29T07:46:00.890Z,3.96
2022-11-29T07:48:28.681Z,4.00
2022-11-29T07:50:57.102Z,4.06
2022-11-29T07:53:25.169Z,4.10
2022-11-29T07:55:53.106Z,4.16
2022-11-29T07:58:21.096Z,4.20
2022-11-29T08:00:49.286Z,4.24
2022-11-29T08:03:17.079Z,4.31
2022-11-29T08:05:48.353Z,4.36
2022-11-29T08:08:16.415Z,4.45
2022-11-29T08:10:44.646Z,4.51
2022-11-29T08:13:12.548Z,4.58
2022-11-29T08:15:45.525Z,4.61
2022-11-29T08:18:16.457Z,4.65
2022-11-29T08:20:44.441Z,4.70
2022-11-29T08:23:13.853Z,4.74
2022-11-29T08:25:41.933Z,4.77
2022-11-29T08:28:12.852Z,4.80
2022-11-29T08:30:40.647Z,4.82
2022-11-29T08:33:08.590Z,4.87
2022-11-29T08:35:36.428Z,4.92
2022-11-29T08:38:05.025Z,4.97
2022-11-29T08:40:32.999Z,4.99
2022-11-29T08:43:01.351Z,5.01
2022-11-29T08:45:29.270Z,5.03
2022-11-29T08:47:57.104Z,5.06
2022-11-29T08:50:25.678Z,5.09
2022-11-29T08:53:11.888Z,5.10
2022-11-29T08:55:42.966Z,5.13
2022-11-29T08:58:15.829Z,5.15
2022-11-29T09:00:46.898Z,5.15
2022-11-29T09:03:34.888Z,5.15
2022-11-29T09:06:12.484Z,5.17
2022-11-29T09:08:45.716Z,5.20
2022-11-29T09:11:16.980Z,5.26
2022-11-29T09:13:47.033Z,5.30
2022-11-29T09:16:20.597Z,5.34
2022-11-29T09:18:53.009Z,5.37
2022-11-29T09:21:20.964Z,5.39
2022-11-29T09:23:48.793Z,5.41
2022-11-29T09:26:19.940Z,5.44
2022-11-29T09:28:47.685Z,5.44
2022-11-29T09:31:17.160Z,5.46
2022-11-29T09:33:45.675Z,5.50
2022-11-29T09:36:13.922Z,5.54
2022-11-29T09:38:41.905Z,5.57
2022-11-29T09:41:44.280Z,5.60
2022-11-29T09:44:40.321Z,5.64
2022-11-29T09:47:37.762Z,5.65
2022-11-29T09:50:19.676Z,5.69
2022-11-29T09:53:00.024Z,5.72
2022-11-29T09:55:43.134Z,5.76
2022-11-29T09:58:18.304Z,5.80
2022-11-29T10:00:50.644Z,5.87
2022-11-29T10:03:33.831Z,5.96
2022-11-29T10:06:26.900Z,6.03
2022-11-29T10:09:08.420Z,6.10
2022-11-29T10:11:42.606Z,6.18
2022-11-29T10:14:20.389Z,6.24
2022-11-29T10:16:56.313Z,6.31
2022-11-29T10:19:33.652Z,6.38
2022-11-29T10:22:07.690Z,6.42
2022-11-29T10:24:39.097Z,6.45
2022-11-29T10:27:19.816Z,6.47
2022-11-29T10:29:51.129Z,6.50
2022-11-29T10:32:21.326Z,6.53
2022-11-29T10:34:49.758Z,6.53
2022-11-29T10:37:22.308Z,6.54
2022-11-29T10:40:00.370Z,6.58
2022-11-29T10:42:50.315Z,6.60
2022-11-29T10:45:31.357Z,6.63
2022-11-29T10:48:12.188Z,6.67
2022-11-29T10:50:44.945Z,6.67
2022-11-29T10:53:16.318Z,6.66
2022-11-29T10:55:50.738Z,6.68
2022-11-29T10:58:28.565Z,6.68
2022-11-29T11:01:06.749Z,6.72
2022-11-29T11:03:41.623Z,6.73
2022-11-29T11:06:16.391Z,6.75
2022-11-29T11:08:48.106Z,6.79
2022-11-29T11:11:25.560Z,6.83
2022-11-29T11:14:06.228Z,6.90
2022-11-29T11:16:37.405Z,6.95
2022-11-29T11:19:28.538Z,7.02
2022-11-29T11:21:59.399Z,7.09
2022-11-29T11:24:30.645Z,7.12
2022-11-29T11:27:01.270Z,7.15
2022-11-29T11:29:37.872Z,7.20
2022-11-29T11:32:15.532Z,7.24
2022-11-29T11:35:20.976Z,7.28
2022-11-29T11:37:56.572Z,7.32
2022-11-29T11:40:30.625Z,7.36
2022-11-29T11:43:04.560Z,7.35
2022-11-29T11:45:35.481Z,7.32
2022-11-29T11:48:11.667Z,7.31
2022-11-29T11:50:52.112Z,7.31
2022-11-29T11:53:39.217Z,7.32
2022-11-29T11:56:11.277Z,7.32
2022-11-29T11:58:47.446Z,7.34
2022-11-29T12:01:35.629Z,7.36
2022-11-29T12:04:15.054Z,7.38
2022-11-29T12:06:58.081Z,7.40
2022-11-29T12:09:49.305Z,7.45
2022-11-29T12:12:30.715Z,7.47
2022-11-29T12:15:22.127Z,7.47
2022-11-29T12:17:56.414Z,7.49
2022-11-29T12:20:31.392Z,7.48
2022-11-29T12:23:16.532Z,7.51
2022-11-29T12:26:00.624Z,7.54
2022-11-29T12:28:33.138Z,7.58
2022-11-29T12:31:36.488Z,7.63
2022-11-29T12:34:07.198Z,7.63
2022-11-29T12:36:53.987Z,7.65
2022-11-29T12:39:53.730Z,7.67
2022-11-29T12:42:36.179Z,7.65
2022-11-29T12:45:24.058Z,7.67
2022-11-29T12:48:13.570Z,7.62
2022-11-29T12:50:50.717Z,7.56
2022-11-29T12:53:49.606Z,7.50
2022-11-29T12:56:48.132Z,7.43
2022-11-29T12:59:33.407Z,7.37
2022-11-29T13:02:23.735Z,7.31
2022-11-29T13:05:20.652Z,7.28
2022-11-29T13:08:29.929Z,7.25
2022-11-29T13:11:03.769Z,7.24
2022-11-29T13:13:44.661Z,7.23
2022-11-29T13:16:34.920Z,7.20
2022-11-29T13:19:14.910Z,7.16
2022-11-29T13:22:20.271Z,7.14
2022-11-29T13:24:57.082Z,7.10
2022-11-29T13:27:30.074Z,7.09
2022-11-29T13:30:00.586Z,7.08
2022-11-29T13:32:33.394Z,7.06
2022-11-29T13:35:17.878Z,7.04
2022-11-29T13:37:55.340Z,7.00
2022-11-29T13:40:56.869Z,6.96
2022-11-29T13:43:45.662Z,6.92
2022-11-29T13:46:37.198Z,6.88
2022-11-29T13:49:05.158Z,6.82
2022-11-29T13:51:37.627Z,6.80
2022-11-29T13:54:24.936Z,6.76
2022-11-29T13:57:05.159Z,6.72
2022-11-29T13:59:35.968Z,6.67
2022-11-29T14:02:24.498Z,6.63
2022-11-29T14:04:52.731Z,6.56
2022-11-29T14:07:20.774Z,6.51
2022-11-29T14:09:50.484Z,6.47
2022-11-29T14:12:26.329Z,6.44
2022-11-29T14:15:01.713Z,6.41
2022-11-29T14:17:46.717Z,6.38
2022-11-29T14:20:23.358Z,6.34
2022-11-29T14:23:06.532Z,6.31
2022-11-29T14:26:00.869Z,6.28
2022-11-29T14:28:31.643Z,6.24
2022-11-29T14:31:04.627Z,6.21
2022-11-29T14:33:50.866Z,6.16
2022-11-29T14:36:45.709Z,6.13
2022-11-29T14:39:32.390Z,6.10
2022-11-29T14:42:21.564Z,6.07
2022-11-29T14:45:01.545Z,6.01
2022-11-29T14:47:39.085Z,5.96
2022-11-29T14:50:10.535Z,5.92
2022-11-29T14:52:51.400Z,5.88
2022-11-29T14:55:22.659Z,5.85
2022-11-29T14:57:54.923Z,5.81
2022-11-29T15:00:33.572Z,5.79
2022-11-29T15:03:10.406Z,5.75
2022-11-29T15:05:38.451Z,5.73
2022-11-29T15:08:17.120Z,5.72
2022-11-29T15:10:51.733Z,5.70
2022-11-29T15:13:27.788Z,5.69
2022-11-29T15:16:20.360Z,5.65
2022-11-29T15:19:04.892Z,5.63
2022-11-29T15:21:50.933Z,5.63
2022-11-29T15:24:19.830Z,5.61
2022-11-29T15:27:00.660Z,5.59
2022-11-29T15:29:30.813Z,5.60
2022-11-29T15:32:01.158Z,5.60
2022-11-29T15:34:40.217Z,5.59
2022-11-29T15:37:22.179Z,5.60
2022-11-29T15:40:20.677Z,5.59
2022-11-29T15:43:00.095Z,5.61
2022-11-29T15:45:34.758Z,5.61
2022-11-29T15:48:35.421Z,5.60
2022-11-29T15:51:21.519Z,5.60
2022-11-29T15:54:11.302Z,5.59
2022-11-29T15:56:47.490Z,5.58
2022-11-29T16:00:02.069Z,5.59
2022-11-29T16:03:26.252Z,5.58
2022-11-29T16:07:19.475Z,5.57
2022-11-29T16:10:04.017Z,5.56
2022-11-29T16:12:32.180Z,5.54
2022-11-29T16:15:01.457Z,5.53
2022-11-29T16:17:34.420Z,5.50
2022-11-29T16:20:14.468Z,5.48
2022-11-29T16:22:42.595Z,5.48
2022-11-29T16:25:20.737Z,5.45
2022-11-29T16:27:53.739Z,5.43
2022-11-29T16:30:24.679Z,5.41
2022-11-29T16:32:55.534Z,5.39
2022-11-29T16:35:27.647Z,5.39
2022-11-29T16:37:56.004Z,5.37
2022-11-29T16:40:29.865Z,5.36
2022-11-29T16:43:03.907Z,5.34
2022-11-29T16:45:38.024Z,5.32
2022-11-29T16:48:25.540Z,5.29
2022-11-29T16:51:23.617Z,5.27
2022-11-29T16:53:52.877Z,5.26
2022-11-29T16:56:22.946Z,5.26
2022-11-29T16:59:24.914Z,5.26
2022-11-29T17:01:49.503Z,5.25
2022-11-29T17:04:24.362Z,5.23
2022-11-29T17:06:56.436Z,5.18
2022-11-29T17:09:30.027Z,5.14
2022-11-29T17:11:59.947Z,5.11
2022-11-29T17:14:29.057Z,5.07
2022-11-29T17:16:57.236Z,5.02
2022-11-29T17:19:25.205Z,4.99
2022-11-29T17:21:53.084Z,4.95
2022-11-29T17:24:22.715Z,4.92
2022-11-29T17:26:51.394Z,4.87
2022-11-29T17:29:19.157Z,4.81
2022-11-29T17:31:47.729Z,4.76
2022-11-29T17:34:16.589Z,4.72
2022-11-29T17:36:45.199Z,4.66
2022-11-29T17:39:15.756Z,4.61
2022-11-29T17:41:43.656Z,4.57
2022-11-29T17:44:11.714Z,4.52
2022-11-29T17:46:39.666Z,4.49
2022-11-29T17:49:09.371Z,4.47
2022-11-29T17:51:54.307Z,4.45
2022-11-29T17:54:23.279Z,4.45
2022-11-29T17:56:51.349Z,4.44
2022-11-29T17:59:19.230Z,4.44
2022-11-29T18:01:47.664Z,4.44
2022-11-29T18:04:15.591Z,4.45
2022-11-29T18:06:43.726Z,4.45
2022-11-29T18:09:11.728Z,4.41
2022-11-29T18:11:48.667Z,4.43
2022-11-29T18:14:20.966Z,4.43
2022-11-29T18:16:48.945Z,4.40
2022-11-29T18:19:19.730Z,4.40
2022-11-29T18:21:48.159Z,4.40
2022-11-29T18:24:16.632Z,4.41
2022-11-29T18:26:45.394Z,4.42
2022-11-29T18:29:13.431Z,4.41
2022-11-29T18:31:44.082Z,4.38
2022-11-29T18:34:13.937Z,4.36
2022-11-29T18:36:44.295Z,4.35
2022-11-29T18:39:15.518Z,4.34
2022-11-29T18:41:46.060Z,4.32
2022-11-29T18:44:15.536Z,4.30
2022-11-29T18:46:44.195Z,4.26
2022-11-29T18:49:15.137Z,4.22
2022-11-29T18:51:44.738Z,4.18
2022-11-29T18:54:15.459Z,4.15
2022-11-29T18:56:44.688Z,4.12
2022-11-29T18:59:17.056Z,4.11
2022-11-29T19:01:48.280Z,4.09
2022-11-29T19:04:18.995Z,4.08
2022-11-29T19:06:47.312Z,4.05
2022-11-29T19:09:20.875Z,4.02
2022-11-29T19:11:49.845Z,4.01
2022-11-29T19:14:18.793Z,4.00
2022-11-29T19:16:49.381Z,3.98
2022-11-29T19:19:18.955Z,3.99
2022-11-29T19:21:46.971Z,3.98
2022-11-29T19:24:20.659Z,3.96
2022-11-29T19:26:49.658Z,3.93
2022-11-29T19:29:17.713Z,3.90
2022-11-29T19:31:45.839Z,3.87
2022-11-29T19:34:14.092Z,3.83
2022-11-29T19:36:43.721Z,3.81
2022-11-29T19:39:14.541Z,3.81
2022-11-29T19:41:45.153Z,3.80
2022-11-29T19:44:13.437Z,3.79
2022-11-29T19:46:48.793Z,3.79
2022-11-29T19:49:17.273Z,3.78
2022-11-29T19:51:45.123Z,3.77
2022-11-29T19:54:13.198Z,3.76
2022-11-29T19:56:41.256Z,3.74
2022-11-29T19:59:09.364Z,3.73
2022-11-29T20:01:42.640Z,3.69
2022-11-29T20:04:13.287Z,3.65
2022-11-29T20:06:41.762Z,3.61
2022-11-29T20:09:10.796Z,3.56
2022-11-29T20:11:40.382Z,3.52
2022-11-29T20:14:10.766Z,3.47
2022-11-29T20:16:39.111Z,3.45
2022-11-29T20:19:16.968Z,3.40
2022-11-29T20:21:49.147Z,3.34
2022-11-29T20:24:17.887Z,3.27
2022-11-29T20:26:47.387Z,3.22
2022-11-29T20:29:15.987Z,3.17
2022-11-29T20:31:50.251Z,3.15
2022-11-29T20:34:20.054Z,3.12
2022-11-29T20:36:48.554Z,3.09
2022-11-29T20:39:39.041Z,3.06
2022-11-29T20:42:12.991Z,3.02
2022-11-29T20:44:51.950Z,2.98
2022-11-29T20:47:22.532Z,2.95
2022-11-29T20:49:50.648Z,2.89
2022-11-29T20:52:36.515Z,2.82
2022-11-29T20:55:05.515Z,2.78
2022-11-29T20:57:33.432Z,2.71
2022-11-29T21:00:01.335Z,2.66
2022-11-29T21:02:29.211Z,2.60
2022-11-29T21:04:57.103Z,2.56
2022-11-29T21:07:25.099Z,2.56
2022-11-29T21:09:57.988Z,2.52
2022-11-29T21:12:29.812Z,2.43
2022-11-29T21:14:58.297Z,2.34
2022-11-29T21:17:31.857Z,2.26
2022-11-29T21:20:02.083Z,2.18
2022-11-29T21:22:49.243Z,2.11
2022-11-29T21:25:31.591Z,2.05
2022-11-29T21:28:00.521Z,1.99
2022-11-29T21:30:28.612Z,1.95
2022-11-29T21:32:56.586Z,1.92
2022-11-29T21:35:24.605Z,1.91
2022-11-29T21:37:56.796Z,1.88
2022-11-29T21:40:24.563Z,1.85
2022-11-29T21:42:52.320Z,1.81
2022-11-29T21:45:20.204Z,1.75
2022-11-29T21:47:48.120Z,1.71
2022-11-29T21:50:15.912Z,1.69
2022-11-29T21:52:44.492Z,1.65
2022-11-29T21:55:14.151Z,1.63
2022-11-29T21:57:41.911Z,1.58
2022-11-29T22:00:10.705Z,1.52
2022-11-29T22:02:38.561Z,1.48
2022-11-29T22:05:07.961Z,1.44
2022-11-29T22:07:35.778Z,1.40
2022-11-29T22:10:11.709Z,1.36
2022-11-29T22:12:51.273Z,1.33
2022-11-29T22:15:24.627Z,1.32
2022-11-29T22:17:53.598Z,1.30
2022-11-29T22:20:21.455Z,1.29
2022-11-29T22:22:49.351Z,1.28
2022-11-29T22:25:17.537Z,1.27
2022-11-29T22:27:45.207Z,1.26
2022-11-29T22:30:13.047Z,1.25
2022-11-29T22:32:41.953Z,1.24
2022-11-29T22:35:11.456Z,1.24
2022-11-29T22:37:39.173Z,1.23
2022-11-29T22:40:07.582Z,1.23
2022-11-29T22:42:35.254Z,1.22
2022-11-29T22:45:04.336Z,1.20
2022-11-29T22:47:32.358Z,1.19
2022-11-29T22:50:00.089Z,1.19
2022-11-29T22:52:29.701Z,1.19
2022-11-29T22:55:04.311Z,1.18
2022-11-29T22:57:33.111Z,1.16
2022-11-29T23:00:01.056Z,1.15
2022-11-29T23:02:29.245Z,1.14
2022-11-29T23:04:57.213Z,1.14
2022-11-29T23:07:25.337Z,1.13
2022-11-29T23:09:55.102Z,1.11
2022-11-29T23:12:23.121Z,1.11
2022-11-29T23:14:56.067Z,1.12
2022-11-29T23:17:24.647Z,1.10
2022-11-29T23:19:52.733Z,1.10
2022-11-29T23:22:20.401Z,1.11
2022-11-29T23:24:48.321Z,1.09
2022-11-29T23:27:16.385Z,1.08
2022-11-29T23:29:51.909Z,1.07
2022-11-29T23:32:19.863Z,1.03
2022-11-29T23:34:47.804Z,1.02
2022-11-29T23:37:15.817Z,1.00
2022-11-29T23:39:43.698Z,0.98
2022-11-29T23:42:11.365Z,0.99
2022-11-29T23:44:39.504Z,1.00
2022-11-29T23:47:07.281Z,0.97
2022-11-29T23:49:35.746Z,0.96
2022-11-29T23:52:03.625Z,0.96
2022-11-29T23:54:31.635Z,0.94
2022-11-29T23:56:59.314Z,0.92
2022-11-29T23:59:27.105Z,0.90
